Terminal Aerodrome Forecast
Issued by NWS Melbourne, FL

Home | Current Version | Previous Version | Text Only | Print | Product List | Glossary On
Versions: 1 2 3 4 5 6 7 8 9 10 11 12 13 14 15 16 17
000
FTUS42 KMLB 191700 RRA
TAFMLB
TAF
KMLB 191742Z 1918/2018 07009KT P6SM VCSH SCT025 OVC150
     FM200000 05008KT P6SM -SHRA OVC030
     FM201400 VRB05KT P6SM VCSH BKN030 OVC060=

USA.gov is the U.S. government's official web portal to all federal, state and local government web resources and services.